Time;durP1;ratioP1;P1;durP2;ratioP2;P2;SDS_P1;SDS_P2;PMS_P1;PMS_P2;Temp;Humidity;BMP_temperature;BMP_pressure;BME280_temperature;BME280_humidity;BME280_pressure;Samples;Min_cycle;Max_cycle;Signal;HPM_P1;HPM_P2
2021/07/13 00:01:04;;;;;;;;;;;19.30;92.20;;;;;;5036703;28;19920;-67
2021/07/13 00:03:29;;;;;;;;;;;19.30;92.40;;;;;;5037786;28;19981;-67
2021/07/13 00:05:55;;;;;;;;;;;19.20;92.40;;;;;;5035990;28;20083;-67
2021/07/13 00:08:20;;;;;;;;;;;19.20;92.50;;;;;;5037809;28;20426;-67
2021/07/13 00:10:46;;;;;;;;;;;19.10;92.80;;;;;;5037961;28;20031;-66
2021/07/13 00:13:12;;;;;;;;;;;19.10;92.90;;;;;;5041160;28;19917;-66
2021/07/13 00:15:38;;;;;;;;;;;19.10;93.10;;;;;;5036602;28;19952;-67
2021/07/13 00:18:05;;;;;;;;;;;19.10;92.90;;;;;;5035186;28;19967;-66
2021/07/13 00:20:30;;;;;;;;;;;19.00;93.10;;;;;;5031518;28;19920;-66
2021/07/13 00:22:56;;;;;;;;;;;19.00;93.20;;;;;;5034518;28;20430;-66
2021/07/13 00:25:22;;;;;;;;;;;19.20;93.70;;;;;;5032833;28;20276;-66
2021/07/13 00:27:47;;;;;;;;;;;19.10;93.40;;;;;;5032457;28;19967;-66
2021/07/13 00:30:14;;;;;;;;;;;19.20;93.50;;;;;;5034453;28;20062;-66
2021/07/13 00:32:40;;;;;;;;;;;19.10;93.60;;;;;;5031377;28;19913;-66
2021/07/13 00:35:05;;;;;;;;;;;19.10;93.40;;;;;;5034740;28;20015;-66
2021/07/13 00:37:31;;;;;;;;;;;19.10;93.50;;;;;;5036857;28;19920;-66
2021/07/13 00:39:56;;;;;;;;;;;19.10;93.50;;;;;;5033622;28;19923;-66
2021/07/13 00:42:22;;;;;;;;;;;19.20;93.40;;;;;;5032579;28;19919;-66
2021/07/13 00:44:47;;;;;;;;;;;19.20;93.30;;;;;;5035610;28;19960;-66
2021/07/13 00:47:16;;;;;;;;;;;19.30;93.30;;;;;;5036555;28;19913;-66
2021/07/13 00:49:44;;;;;;;;;;;19.30;93.30;;;;;;5037369;28;19963;-67
2021/07/13 00:52:10;;;;;;;;;;;19.30;93.20;;;;;;5035609;28;20447;-66
2021/07/13 00:54:37;;;;;;;;;;;19.30;93.20;;;;;;5035861;28;19913;-66
2021/07/13 00:57:21;;;;;;;;;;;19.30;93.20;;;;;;5032702;28;21740;-66
2021/07/13 00:59:46;;;;;;;;;;;19.30;93.10;;;;;;5034134;28;20386;-66
2021/07/13 01:02:13;;;;;;;;;;;19.30;93.10;;;;;;5035004;28;19915;-66
2021/07/13 01:04:40;;;;;;;;;;;19.30;93.20;;;;;;5038476;28;19927;-67
2021/07/13 01:07:09;;;;;;;;;;;19.30;92.80;;;;;;5039921;28;19935;-67
2021/07/13 01:09:34;;;;;;;;;;;19.40;93.10;;;;;;5039918;28;19990;-66
2021/07/13 01:12:06;;;;;;;;;;;19.40;93.10;;;;;;5034700;28;20361;-67
2021/07/13 01:14:35;;;;;;;;;;;19.40;93.10;;;;;;5039595;28;20103;-67
2021/07/13 01:17:03;;;;;;;;;;;19.40;93.00;;;;;;5041002;28;19936;-66
2021/07/13 01:19:34;;;;;;;;;;;19.40;93.00;;;;;;5043240;28;20132;-67
2021/07/13 01:22:02;;;;;;;;;;;19.40;93.20;;;;;;5039029;28;19943;-67
2021/07/13 01:24:37;;;;;;;;;;;19.40;93.20;;;;;;5041139;28;19913;-67
2021/07/13 01:27:12;;;;;;;;;;;19.40;93.20;;;;;;5041406;28;19919;-66
2021/07/13 01:29:39;;;;;;;;;;;19.30;93.20;;;;;;5038502;28;20294;-67
2021/07/13 01:32:05;;;;;;;;;;;19.40;93.30;;;;;;5040024;28;20323;-66
2021/07/13 01:34:34;;;;;;;;;;;19.40;93.40;;;;;;5038824;28;19953;-66
2021/07/13 01:37:01;;;;;;;;;;;19.40;93.40;;;;;;5039787;28;19909;-66
2021/07/13 01:39:28;;;;;;;;;;;19.40;93.50;;;;;;5041973;28;19916;-66
2021/07/13 01:41:56;;;;;;;;;;;19.40;93.50;;;;;;5039112;28;20011;-66
2021/07/13 01:44:22;;;;;;;;;;;19.40;93.40;;;;;;5039708;28;20172;-66
2021/07/13 01:46:49;;;;;;;;;;;19.50;93.50;;;;;;5037934;28;20631;-66
2021/07/13 01:49:19;;;;;;;;;;;19.40;93.40;;;;;;5038691;28;20016;-67
2021/07/13 01:51:47;;;;;;;;;;;19.50;93.50;;;;;;5033394;28;19921;-67
2021/07/13 01:54:13;;;;;;;;;;;19.50;93.60;;;;;;5036123;28;19983;-66
2021/07/13 01:56:39;;;;;;;;;;;19.50;93.80;;;;;;5032181;28;20416;-66
2021/07/13 01:59:05;;;;;;;;;;;19.50;93.80;;;;;;5039895;28;19928;-66
2021/07/13 02:01:31;;;;;;;;;;;19.50;93.70;;;;;;5038664;28;19953;-66
2021/07/13 02:03:57;;;;;;;;;;;19.40;93.70;;;;;;5041291;28;19913;-67
2021/07/13 02:06:24;;;;;;;;;;;19.40;93.80;;;;;;5035052;28;19924;-66
2021/07/13 02:08:51;;;;;;;;;;;19.50;93.90;;;;;;5037856;28;19935;-68
2021/07/13 02:11:17;;;;;;;;;;;19.40;93.90;;;;;;5029797;28;20074;-66
2021/07/13 02:13:43;;;;;;;;;;;19.40;93.90;;;;;;5040916;28;20007;-66
2021/07/13 02:16:08;;;;;;;;;;;19.50;93.90;;;;;;5042508;28;19917;-66
2021/07/13 02:18:34;;;;;;;;;;;19.50;93.80;;;;;;5033696;28;20297;-65
2021/07/13 02:20:59;;;;;;;;;;;19.40;93.80;;;;;;5037933;28;19912;-67
2021/07/13 02:23:25;;;;;;;;;;;19.40;93.90;;;;;;5035051;28;19975;-66
2021/07/13 02:25:53;;;;;;;;;;;19.40;93.90;;;;;;5038901;28;19924;-66
2021/07/13 02:28:21;;;;;;;;;;;19.40;93.90;;;;;;5039871;28;19975;-67
2021/07/13 02:30:48;;;;;;;;;;;19.40;94.10;;;;;;5042457;28;19913;-66
2021/07/13 02:33:17;;;;;;;;;;;19.30;93.90;;;;;;5028574;28;20449;-67
2021/07/13 02:35:45;;;;;;;;;;;19.30;93.80;;;;;;5039491;28;19928;-67
2021/07/13 02:38:11;;;;;;;;;;;19.40;94.00;;;;;;5040254;28;19924;-67
2021/07/13 02:40:37;;;;;;;;;;;19.40;93.80;;;;;;5043150;28;19913;-66
2021/07/13 02:43:03;;;;;;;;;;;19.30;93.90;;;;;;5041167;28;19924;-65
2021/07/13 02:45:29;;;;;;;;;;;19.30;93.70;;;;;;5041749;28;19948;-67
2021/07/13 02:47:56;;;;;;;;;;;19.30;93.80;;;;;;5038914;28;20311;-66
2021/07/13 02:50:22;;;;;;;;;;;19.30;94.10;;;;;;5038376;28;19921;-67
2021/07/13 02:52:48;;;;;;;;;;;19.20;94.00;;;;;;5038568;28;19960;-67
2021/07/13 02:55:15;;;;;;;;;;;19.20;94.10;;;;;;5043431;28;20369;-67
2021/07/13 02:57:42;;;;;;;;;;;19.20;94.10;;;;;;5045402;28;19931;-66
2021/07/13 03:00:08;;;;;;;;;;;19.20;94.00;;;;;;5036103;28;20377;-66
2021/07/13 03:02:35;;;;;;;;;;;19.10;94.10;;;;;;5041731;28;19982;-66
2021/07/13 03:05:00;;;;;;;;;;;19.10;94.30;;;;;;5045398;28;19916;-66
2021/07/13 03:07:26;;;;;;;;;;;19.10;94.50;;;;;;5043260;28;19931;-67
2021/07/13 03:09:53;;;;;;;;;;;19.10;94.60;;;;;;5043102;28;19917;-66
2021/07/13 03:12:19;;;;;;;;;;;19.00;94.90;;;;;;5034770;28;19997;-66
2021/07/13 03:14:45;;;;;;;;;;;19.00;94.80;;;;;;5035928;28;20010;-68
2021/07/13 03:17:12;;;;;;;;;;;19.00;95.10;;;;;;5023128;28;19931;-66
2021/07/13 03:19:38;;;;;;;;;;;19.00;94.90;;;;;;5043836;28;19952;-67
2021/07/13 03:22:05;;;;;;;;;;;19.00;95.10;;;;;;5043143;28;20441;-68
2021/07/13 03:24:30;;;;;;;;;;;19.00;95.10;;;;;;5041841;28;19913;-66
2021/07/13 03:26:57;;;;;;;;;;;18.90;95.00;;;;;;5044706;28;19924;-66
2021/07/13 03:29:23;;;;;;;;;;;18.90;95.10;;;;;;5039707;28;19970;-67
2021/07/13 03:31:48;;;;;;;;;;;18.80;94.90;;;;;;5038618;28;20247;-66
2021/07/13 03:34:14;;;;;;;;;;;18.80;95.10;;;;;;5026159;28;19928;-67
2021/07/13 03:36:40;;;;;;;;;;;18.80;95.20;;;;;;5038569;28;19921;-66
2021/07/13 03:39:06;;;;;;;;;;;18.80;95.30;;;;;;5041401;28;19917;-66
2021/07/13 03:41:32;;;;;;;;;;;18.80;95.40;;;;;;5041184;28;19921;-66
2021/07/13 03:44:00;;;;;;;;;;;18.80;95.40;;;;;;5039885;28;20181;-66
2021/07/13 03:46:25;;;;;;;;;;;18.80;95.70;;;;;;5038262;28;19951;-66
2021/07/13 03:48:52;;;;;;;;;;;18.80;95.80;;;;;;5039934;28;19917;-66
2021/07/13 03:51:21;;;;;;;;;;;18.80;95.80;;;;;;5040054;28;19986;-67
2021/07/13 03:53:47;;;;;;;;;;;18.80;95.80;;;;;;5037469;28;19944;-66
2021/07/13 03:56:12;;;;;;;;;;;18.90;95.70;;;;;;5039360;28;20337;-66
2021/07/13 03:58:38;;;;;;;;;;;18.90;95.80;;;;;;5044049;28;20024;-67
2021/07/13 04:01:03;;;;;;;;;;;19.00;95.70;;;;;;5041135;28;19921;-66
2021/07/13 04:03:28;;;;;;;;;;;19.00;95.80;;;;;;5040009;28;19999;-66
2021/07/13 04:05:54;;;;;;;;;;;19.00;95.70;;;;;;5039529;28;20433;-66
2021/07/13 04:08:19;;;;;;;;;;;19.00;95.70;;;;;;5043397;28;19916;-66
2021/07/13 04:10:45;;;;;;;;;;;19.10;95.70;;;;;;5044425;28;19920;-67
2021/07/13 04:13:10;;;;;;;;;;;19.00;95.80;;;;;;5042994;28;20395;-66
2021/07/13 04:15:37;;;;;;;;;;;19.10;95.80;;;;;;5037059;28;20030;-67
2021/07/13 04:18:03;;;;;;;;;;;19.10;95.60;;;;;;5042976;28;19917;-66
2021/07/13 04:20:28;;;;;;;;;;;19.20;95.60;;;;;;5030337;28;20384;-66
2021/07/13 04:22:54;;;;;;;;;;;19.20;95.70;;;;;;5041713;28;19999;-66
2021/07/13 04:25:19;;;;;;;;;;;19.20;95.60;;;;;;5042492;28;19997;-67
2021/07/13 04:27:45;;;;;;;;;;;19.20;95.60;;;;;;5038267;28;19923;-66
2021/07/13 04:30:11;;;;;;;;;;;19.30;95.60;;;;;;5036950;28;19913;-66
2021/07/13 04:32:37;;;;;;;;;;;19.20;95.70;;;;;;5039345;28;20492;-67
2021/07/13 04:35:02;;;;;;;;;;;19.30;95.70;;;;;;5042470;28;20075;-66
2021/07/13 04:37:28;;;;;;;;;;;19.30;95.70;;;;;;5044062;28;20412;-67
2021/07/13 04:39:53;;;;;;;;;;;19.40;95.60;;;;;;5040952;28;19981;-66
2021/07/13 04:42:19;;;;;;;;;;;19.50;95.50;;;;;;5043171;28;20066;-67
2021/07/13 04:44:44;;;;;;;;;;;19.60;95.40;;;;;;5040339;28;19913;-66
2021/07/13 04:47:10;;;;;;;;;;;19.60;95.30;;;;;;5041618;28;19925;-67
2021/07/13 04:49:35;;;;;;;;;;;19.70;95.20;;;;;;5043523;28;20530;-66
2021/07/13 04:52:01;;;;;;;;;;;19.80;95.00;;;;;;5038220;28;19985;-66
2021/07/13 04:54:31;;;;;;;;;;;20.00;94.90;;;;;;5041242;28;19959;-67
2021/07/13 04:56:57;;;;;;;;;;;20.00;94.70;;;;;;5038331;28;19917;-66
2021/07/13 04:59:25;;;;;;;;;;;20.00;94.50;;;;;;5037467;28;20139;-66
2021/07/13 05:01:51;;;;;;;;;;;20.10;94.30;;;;;;5037525;28;19921;-67
2021/07/13 05:04:16;;;;;;;;;;;20.20;94.20;;;;;;5038007;28;19923;-66
2021/07/13 05:06:42;;;;;;;;;;;20.20;93.90;;;;;;5038026;28;19917;-66
2021/07/13 05:09:07;;;;;;;;;;;20.20;93.90;;;;;;5038381;28;20411;-66
2021/07/13 05:11:33;;;;;;;;;;;20.20;93.90;;;;;;5040678;28;20051;-67
2021/07/13 05:14:00;;;;;;;;;;;20.10;94.00;;;;;;5033286;28;19913;-67
2021/07/13 05:16:26;;;;;;;;;;;20.20;94.10;;;;;;5037051;28;19960;-66
2021/07/13 05:18:51;;;;;;;;;;;20.10;94.00;;;;;;5035924;28;20452;-66
2021/07/13 05:21:17;;;;;;;;;;;20.10;94.10;;;;;;5037731;28;20298;-66
2021/07/13 05:23:42;;;;;;;;;;;20.10;94.20;;;;;;5036612;28;19991;-66
2021/07/13 05:26:08;;;;;;;;;;;20.10;94.10;;;;;;5039551;28;21617;-67
2021/07/13 05:28:33;;;;;;;;;;;20.10;94.20;;;;;;5036732;28;19999;-66
2021/07/13 05:30:59;;;;;;;;;;;20.10;94.20;;;;;;5038661;28;20289;-66
2021/07/13 05:33:24;;;;;;;;;;;20.20;93.90;;;;;;5020880;28;19991;-66
2021/07/13 05:35:50;;;;;;;;;;;20.30;93.80;;;;;;5037406;28;19916;-66
2021/07/13 05:38:15;;;;;;;;;;;20.40;93.70;;;;;;5029459;28;20250;-66
2021/07/13 05:40:44;;;;;;;;;;;20.50;93.40;;;;;;5037102;28;20020;-66
2021/07/13 05:43:10;;;;;;;;;;;20.60;93.10;;;;;;5040697;28;20519;-67
2021/07/13 05:45:35;;;;;;;;;;;20.60;92.30;;;;;;5030404;28;19928;-66
2021/07/13 05:48:01;;;;;;;;;;;20.70;92.50;;;;;;5035219;28;19913;-66
2021/07/13 05:50:26;;;;;;;;;;;20.90;92.20;;;;;;5040375;28;20103;-66
2021/07/13 05:52:52;;;;;;;;;;;21.00;91.30;;;;;;5036240;28;19913;-67
2021/07/13 05:55:18;;;;;;;;;;;21.20;90.70;;;;;;5033486;28;19986;-67
2021/07/13 05:57:44;;;;;;;;;;;21.40;90.60;;;;;;5034045;28;20020;-67
2021/07/13 06:00:10;;;;;;;;;;;21.60;90.10;;;;;;5038359;28;20061;-66
2021/07/13 06:02:35;;;;;;;;;;;21.80;89.50;;;;;;5040012;28;19935;-67
2021/07/13 06:05:01;;;;;;;;;;;21.90;88.10;;;;;;5039448;28;20273;-67
2021/07/13 06:07:26;;;;;;;;;;;22.10;88.00;;;;;;5039644;28;19912;-66
2021/07/13 06:09:52;;;;;;;;;;;22.20;87.70;;;;;;5034402;28;19924;-67
2021/07/13 06:12:17;;;;;;;;;;;22.30;88.00;;;;;;5038954;28;20516;-67
2021/07/13 06:14:43;;;;;;;;;;;22.30;86.70;;;;;;5040475;28;19913;-67
2021/07/13 06:17:08;;;;;;;;;;;22.40;87.40;;;;;;5031920;28;20292;-67
2021/07/13 06:19:34;;;;;;;;;;;22.50;87.10;;;;;;5036967;28;19941;-67
2021/07/13 06:22:00;;;;;;;;;;;22.40;87.10;;;;;;5046123;28;19938;-66
2021/07/13 06:24:25;;;;;;;;;;;22.50;87.10;;;;;;5046327;28;19917;-67
2021/07/13 06:26:51;;;;;;;;;;;22.50;87.00;;;;;;5038656;28;19912;-68
2021/07/13 06:29:16;;;;;;;;;;;22.60;87.10;;;;;;5041803;28;20036;-67
2021/07/13 06:31:42;;;;;;;;;;;22.70;86.90;;;;;;5044853;28;19958;-67
2021/07/13 06:34:07;;;;;;;;;;;22.90;86.50;;;;;;5041163;28;19929;-68
2021/07/13 06:36:33;;;;;;;;;;;23.10;87.40;;;;;;5040819;28;19913;-67
2021/07/13 06:38:58;;;;;;;;;;;23.10;85.40;;;;;;5039420;28;19936;-67
2021/07/13 06:41:24;;;;;;;;;;;23.50;86.10;;;;;;5040180;28;19913;-68
2021/07/13 06:43:49;;;;;;;;;;;23.30;82.40;;;;;;5037153;28;20015;-67
2021/07/13 06:46:15;;;;;;;;;;;23.30;83.80;;;;;;5039325;28;20257;-67
2021/07/13 06:48:40;;;;;;;;;;;23.20;82.40;;;;;;5040542;28;21236;-67
2021/07/13 06:51:06;;;;;;;;;;;23.20;83.40;;;;;;5045273;28;19968;-68
2021/07/13 06:53:31;;;;;;;;;;;23.40;83.70;;;;;;5035752;28;19941;-67
2021/07/13 06:55:57;;;;;;;;;;;23.40;83.30;;;;;;5039160;28;19912;-68
2021/07/13 06:58:22;;;;;;;;;;;23.40;84.10;;;;;;5035639;28;20249;-68
2021/07/13 07:00:47;;;;;;;;;;;23.50;84.00;;;;;;5044527;28;20031;-68
2021/07/13 07:03:13;;;;;;;;;;;23.70;83.40;;;;;;5044486;28;19938;-68
2021/07/13 07:05:40;;;;;;;;;;;23.90;82.40;;;;;;5030256;28;19949;-68
2021/07/13 07:08:06;;;;;;;;;;;24.00;82.70;;;;;;5033455;28;19921;-68
2021/07/13 07:10:32;;;;;;;;;;;24.20;83.20;;;;;;5040701;28;19919;-67
2021/07/13 07:12:57;;;;;;;;;;;24.30;82.60;;;;;;5039796;28;20051;-66
2021/07/13 07:15:23;;;;;;;;;;;24.60;81.70;;;;;;5035684;28;19917;-68
2021/07/13 07:17:50;;;;;;;;;;;24.70;80.10;;;;;;5045380;28;20382;-68
2021/07/13 07:20:17;;;;;;;;;;;24.70;78.80;;;;;;5045570;28;20149;-69
2021/07/13 07:22:43;;;;;;;;;;;25.00;76.80;;;;;;5041809;28;20378;-68
2021/07/13 07:25:09;;;;;;;;;;;25.20;76.30;;;;;;5038391;28;19927;-68
2021/07/13 07:27:35;;;;;;;;;;;25.30;77.70;;;;;;5041922;28;19936;-67
2021/07/13 07:30:01;;;;;;;;;;;25.30;75.10;;;;;;5044035;28;20030;-68
2021/07/13 07:32:26;;;;;;;;;;;25.50;76.60;;;;;;5034352;28;20316;-68
2021/07/13 07:34:52;;;;;;;;;;;25.30;74.10;;;;;;5045588;28;19919;-68
2021/07/13 07:37:17;;;;;;;;;;;25.30;75.80;;;;;;5043710;28;20000;-68
2021/07/13 07:39:43;;;;;;;;;;;25.70;75.80;;;;;;5043581;28;20007;-68
2021/07/13 07:42:08;;;;;;;;;;;25.90;71.80;;;;;;5037414;28;19996;-69
2021/07/13 07:44:34;;;;;;;;;;;26.10;70.70;;;;;;5041180;28;20007;-68
2021/07/13 07:46:59;;;;;;;;;;;26.30;69.90;;;;;;5045138;28;20353;-68
2021/07/13 07:49:25;;;;;;;;;;;26.20;69.60;;;;;;5036874;28;19925;-68
2021/07/13 07:51:50;;;;;;;;;;;26.20;69.20;;;;;;5044291;28;19955;-69
2021/07/13 07:54:16;;;;;;;;;;;26.30;70.50;;;;;;5042703;28;19919;-68
2021/07/13 07:56:41;;;;;;;;;;;26.50;68.20;;;;;;5042238;28;19948;-69
2021/07/13 07:59:07;;;;;;;;;;;26.70;69.00;;;;;;5041548;28;20454;-68
2021/07/13 08:01:32;;;;;;;;;;;26.80;69.40;;;;;;5036559;28;19909;-68
2021/07/13 08:03:58;;;;;;;;;;;26.40;66.60;;;;;;5039374;28;19924;-69
2021/07/13 08:06:23;;;;;;;;;;;26.40;69.60;;;;;;5041599;28;19913;-70
2021/07/13 08:08:49;;;;;;;;;;;26.60;68.20;;;;;;5043386;28;19920;-69
2021/07/13 08:11:14;;;;;;;;;;;27.20;66.80;;;;;;5043963;28;19909;-69
2021/07/13 08:13:40;;;;;;;;;;;27.40;68.80;;;;;;5036263;28;19921;-69
2021/07/13 08:16:05;;;;;;;;;;;27.30;61.80;;;;;;5036303;28;20034;-70
2021/07/13 08:18:31;;;;;;;;;;;27.40;63.20;;;;;;5038115;28;20389;-69
2021/07/13 08:20:59;;;;;;;;;;;27.20;64.50;;;;;;5044086;28;19921;-71
2021/07/13 08:23:24;;;;;;;;;;;27.40;66.00;;;;;;5037507;28;19916;-69
2021/07/13 08:25:50;;;;;;;;;;;27.40;64.30;;;;;;5041961;28;20490;-69
2021/07/13 08:28:15;;;;;;;;;;;27.30;63.60;;;;;;5035132;28;19970;-69
2021/07/13 08:30:41;;;;;;;;;;;27.50;65.40;;;;;;5041027;28;20255;-69
2021/07/13 08:33:06;;;;;;;;;;;27.40;63.10;;;;;;5041591;28;19923;-69
2021/07/13 08:35:32;;;;;;;;;;;27.30;62.70;;;;;;5038122;28;19928;-69
2021/07/13 08:37:57;;;;;;;;;;;27.40;64.00;;;;;;5037121;28;20019;-69
2021/07/13 08:40:24;;;;;;;;;;;27.40;61.50;;;;;;5035973;28;19912;-69
2021/07/13 08:42:49;;;;;;;;;;;27.40;64.90;;;;;;5035307;28;20106;-68
2021/07/13 08:45:16;;;;;;;;;;;27.40;61.30;;;;;;5041618;28;19991;-68
2021/07/13 08:47:43;;;;;;;;;;;27.20;62.30;;;;;;5041866;28;19936;-68
2021/07/13 08:50:09;;;;;;;;;;;27.50;60.20;;;;;;5042406;28;20054;-69
2021/07/13 08:52:35;;;;;;;;;;;27.70;63.50;;;;;;5033019;28;20000;-69
2021/07/13 08:55:01;;;;;;;;;;;27.70;61.90;;;;;;5043373;28;19941;-68
2021/07/13 08:57:27;;;;;;;;;;;27.60;61.30;;;;;;5042007;28;20003;-68
2021/07/13 08:59:52;;;;;;;;;;;27.80;63.10;;;;;;5039331;28;20003;-70
2021/07/13 09:02:18;;;;;;;;;;;27.70;62.70;;;;;;5032577;28;19921;-69
2021/07/13 09:04:44;;;;;;;;;;;28.00;60.30;;;;;;5042345;28;19966;-69
2021/07/13 09:07:09;;;;;;;;;;;27.90;60.10;;;;;;5036357;28;19917;-69
2021/07/13 09:09:36;;;;;;;;;;;27.80;58.50;;;;;;5041134;28;20385;-69
2021/07/13 09:12:04;;;;;;;;;;;27.90;60.00;;;;;;5043925;28;19924;-68
2021/07/13 09:14:46;;;;;;;;;;;27.80;59.90;;;;;;5039078;28;19977;-69
2021/07/13 09:17:24;;;;;;;;;;;28.00;58.70;;;;;;5036444;28;19913;-70
2021/07/13 09:19:59;;;;;;;;;;;28.00;61.00;;;;;;5036220;28;19917;-69
2021/07/13 09:22:25;;;;;;;;;;;28.10;60.20;;;;;;5036420;28;20071;-68
2021/07/13 09:24:51;;;;;;;;;;;28.00;58.70;;;;;;5043054;28;20065;-69
2021/07/13 09:27:19;;;;;;;;;;;28.00;57.50;;;;;;5040182;28;19913;-69
2021/07/13 09:29:46;;;;;;;;;;;28.20;60.80;;;;;;5040853;28;19913;-69
2021/07/13 09:32:16;;;;;;;;;;;28.10;59.70;;;;;;5040898;28;20008;-69
2021/07/13 09:34:49;;;;;;;;;;;28.40;59.70;;;;;;5039805;28;20003;-69
2021/07/13 09:37:20;;;;;;;;;;;28.50;59.80;;;;;;5019249;28;19928;-69
2021/07/13 09:39:58;;;;;;;;;;;28.50;59.70;;;;;;5040258;28;19971;-68
2021/07/13 09:42:27;;;;;;;;;;;28.70;56.80;;;;;;5038293;28;19913;-68
2021/07/13 09:44:53;;;;;;;;;;;28.60;62.90;;;;;;5043562;28;19920;-69
2021/07/13 09:47:28;;;;;;;;;;;28.30;60.10;;;;;;5041164;28;19979;-69
2021/07/13 09:49:54;;;;;;;;;;;28.00;61.20;;;;;;5034837;28;20274;-68
2021/07/13 09:52:22;;;;;;;;;;;27.90;63.20;;;;;;5038539;28;19921;-68
2021/07/13 09:54:48;;;;;;;;;;;27.70;59.30;;;;;;5041898;28;19917;-68
2021/07/13 09:57:14;;;;;;;;;;;28.40;60.90;;;;;;5039426;28;20027;-68
2021/07/13 09:59:40;;;;;;;;;;;28.60;58.00;;;;;;5041402;28;20389;-69
2021/07/13 10:02:07;;;;;;;;;;;28.80;52.50;;;;;;5042206;28;19917;-69
2021/07/13 10:04:33;;;;;;;;;;;29.00;55.40;;;;;;5042266;28;19947;-67
2021/07/13 10:07:02;;;;;;;;;;;29.00;51.00;;;;;;5038835;28;19927;-69
2021/07/13 10:09:31;;;;;;;;;;;29.50;55.00;;;;;;5040432;28;20078;-69
2021/07/13 10:11:57;;;;;;;;;;;29.40;55.40;;;;;;5040287;28;20376;-68
2021/07/13 10:14:22;;;;;;;;;;;29.60;57.60;;;;;;5039373;28;20219;-68
2021/07/13 10:16:48;;;;;;;;;;;30.00;54.90;;;;;;5041391;28;19970;-68
2021/07/13 10:19:13;;;;;;;;;;;30.10;55.40;;;;;;5039699;28;19925;-68
2021/07/13 10:21:39;;;;;;;;;;;29.80;54.80;;;;;;5033001;28;19912;-68
2021/07/13 10:24:05;;;;;;;;;;;29.40;56.40;;;;;;5035880;28;20023;-70
2021/07/13 10:26:41;;;;;;;;;;;29.10;55.80;;;;;;5029700;28;19995;-68
2021/07/13 10:29:26;;;;;;;;;;;28.80;56.60;;;;;;5034725;28;19919;-68
2021/07/13 10:31:51;;;;;;;;;;;28.40;60.90;;;;;;5035448;28;20215;-68
2021/07/13 10:34:37;;;;;;;;;;;28.40;58.70;;;;;;5038968;28;19935;-68
2021/07/13 10:37:25;;;;;;;;;;;28.50;60.70;;;;;;5038479;28;19955;-68
2021/07/13 10:39:51;;;;;;;;;;;28.40;60.40;;;;;;5028799;28;19993;-68
2021/07/13 10:42:36;;;;;;;;;;;28.60;58.90;;;;;;5039915;28;20010;-68
2021/07/13 10:45:11;;;;;;;;;;;28.50;59.20;;;;;;5042935;28;20011;-67
2021/07/13 10:47:36;;;;;;;;;;;29.40;53.30;;;;;;5038403;28;20289;-68
2021/07/13 10:50:17;;;;;;;;;;;29.40;53.60;;;;;;5040509;28;19917;-68
2021/07/13 10:52:50;;;;;;;;;;;29.20;54.50;;;;;;5033924;28;19974;-67
2021/07/13 10:55:31;;;;;;;;;;;29.00;54.80;;;;;;5039743;28;19913;-68
2021/07/13 10:58:23;;;;;;;;;;;28.70;56.30;;;;;;5040684;28;19932;-69
2021/07/13 11:00:54;;;;;;;;;;;29.00;55.60;;;;;;5035631;28;19961;-68
2021/07/13 11:03:28;;;;;;;;;;;28.90;55.80;;;;;;5039021;28;19943;-67
2021/07/13 11:05:54;;;;;;;;;;;29.10;55.60;;;;;;5043775;28;19919;-68
2021/07/13 11:08:38;;;;;;;;;;;28.70;55.70;;;;;;5044765;28;20309;-68
2021/07/13 11:11:04;;;;;;;;;;;28.70;57.90;;;;;;5045125;28;19927;-68
2021/07/13 11:13:29;;;;;;;;;;;28.00;58.30;;;;;;5043682;28;19913;-68
2021/07/13 11:15:56;;;;;;;;;;;27.60;58.00;;;;;;5044556;28;20091;-67
2021/07/13 11:18:28;;;;;;;;;;;27.50;61.40;;;;;;5044219;28;19992;-67
2021/07/13 11:20:53;;;;;;;;;;;27.60;60.60;;;;;;5042394;28;20008;-67
2021/07/13 11:23:28;;;;;;;;;;;27.60;60.10;;;;;;5039174;28;19919;-68
2021/07/13 11:26:03;;;;;;;;;;;27.60;62.10;;;;;;5044073;28;19943;-68
2021/07/13 11:28:29;;;;;;;;;;;27.70;62.00;;;;;;5038014;28;20349;-67
2021/07/13 11:30:54;;;;;;;;;;;27.70;63.20;;;;;;5045087;28;19996;-67
2021/07/13 11:33:24;;;;;;;;;;;27.60;61.20;;;;;;5044474;28;20283;-67
2021/07/13 11:35:54;;;;;;;;;;;27.50;60.90;;;;;;5039118;28;20271;-67
2021/07/13 11:38:26;;;;;;;;;;;27.60;61.70;;;;;;5044865;28;19917;-67
2021/07/13 11:41:07;;;;;;;;;;;27.70;62.70;;;;;;5037118;28;19913;-67
2021/07/13 11:43:32;;;;;;;;;;;27.40;59.20;;;;;;5044365;28;20008;-68
2021/07/13 11:46:15;;;;;;;;;;;27.40;60.40;;;;;;5041373;28;20006;-68
2021/07/13 11:48:52;;;;;;;;;;;27.50;61.20;;;;;;5044667;28;19925;-67
2021/07/13 11:51:25;;;;;;;;;;;27.50;62.00;;;;;;5039673;28;19917;-67
2021/07/13 11:53:57;;;;;;;;;;;27.30;61.20;;;;;;5039341;28;20399;-68
2021/07/13 11:56:29;;;;;;;;;;;27.50;63.80;;;;;;5045638;28;19909;-67
2021/07/13 11:58:54;;;;;;;;;;;27.20;61.80;;;;;;5041031;28;19964;-68
2021/07/13 12:01:21;;;;;;;;;;;27.40;62.10;;;;;;5037295;28;20374;-66
2021/07/13 12:03:47;;;;;;;;;;;27.40;60.60;;;;;;5026411;28;19963;-68
2021/07/13 12:06:15;;;;;;;;;;;27.40;59.60;;;;;;5039383;28;20308;-67
2021/07/13 12:08:41;;;;;;;;;;;27.90;62.30;;;;;;5041797;28;19924;-68
2021/07/13 12:11:07;;;;;;;;;;;28.10;60.80;;;;;;5035626;28;20372;-67
2021/07/13 12:13:33;;;;;;;;;;;27.80;61.40;;;;;;5038562;28;19928;-68
2021/07/13 12:16:33;;;;;;;;;;;28.40;63.00;;;;;;5032109;28;19956;-68
2021/07/13 12:19:00;;;;;;;;;;;28.70;61.30;;;;;;4978454;28;20008;-67
2021/07/13 12:21:26;;;;;;;;;;;29.10;58.80;;;;;;5019405;28;19987;-68
2021/07/13 12:23:53;;;;;;;;;;;29.40;57.60;;;;;;5038995;28;20592;-68
2021/07/13 12:26:19;;;;;;;;;;;29.40;54.90;;;;;;5038350;28;19916;-68
2021/07/13 12:29:00;;;;;;;;;;;29.50;55.80;;;;;;5037149;28;19929;-69
2021/07/13 12:31:26;;;;;;;;;;;29.90;58.90;;;;;;5037492;28;20003;-67
2021/07/13 12:33:52;;;;;;;;;;;30.00;53.90;;;;;;5039451;28;20015;-68
2021/07/13 12:36:24;;;;;;;;;;;30.40;54.40;;;;;;5035774;28;20400;-67
2021/07/13 12:38:50;;;;;;;;;;;30.40;52.10;;;;;;5038736;28;19964;-68
2021/07/13 12:41:18;;;;;;;;;;;30.80;54.20;;;;;;5038443;28;19979;-68
2021/07/13 12:43:45;;;;;;;;;;;30.40;53.10;;;;;;5030472;28;19913;-68
2021/07/13 12:46:26;;;;;;;;;;;30.20;54.00;;;;;;5041602;28;19913;-69
2021/07/13 12:48:51;;;;;;;;;;;29.90;52.60;;;;;;5031023;28;20325;-68
2021/07/13 12:51:23;;;;;;;;;;;29.60;51.60;;;;;;5036241;28;19924;-68
2021/07/13 12:54:08;;;;;;;;;;;29.50;55.60;;;;;;5034121;28;19956;-68
2021/07/13 12:56:34;;;;;;;;;;;29.50;55.80;;;;;;5031740;28;20421;-68
2021/07/13 12:59:07;;;;;;;;;;;29.70;55.50;;;;;;5037884;28;19917;-68
2021/07/13 13:01:33;;;;;;;;;;;29.70;55.30;;;;;;5040009;28;20016;-68
2021/07/13 13:04:11;;;;;;;;;;;29.30;55.20;;;;;;5040118;28;20008;-68
2021/07/13 13:06:37;;;;;;;;;;;29.20;56.80;;;;;;5033844;28;20091;-67
2021/07/13 13:09:09;;;;;;;;;;;28.70;58.50;;;;;;5038448;28;19997;-68
2021/07/13 13:11:35;;;;;;;;;;;28.50;57.00;;;;;;5038753;28;19913;-68
2021/07/13 13:14:03;;;;;;;;;;;28.20;56.30;;;;;;5039131;28;20601;-67
2021/07/13 13:16:29;;;;;;;;;;;27.90;56.10;;;;;;5037381;28;19928;-67
2021/07/13 13:18:55;;;;;;;;;;;27.90;56.40;;;;;;5034897;28;19971;-67
2021/07/13 13:21:22;;;;;;;;;;;27.90;58.90;;;;;;5035062;28;19936;-67
2021/07/13 13:23:54;;;;;;;;;;;27.90;59.60;;;;;;5033822;28;19943;-67
2021/07/13 13:26:20;;;;;;;;;;;27.70;60.10;;;;;;5037329;28;19947;-66
2021/07/13 13:28:46;;;;;;;;;;;27.70;62.00;;;;;;5037634;28;19916;-67
2021/07/13 13:31:11;;;;;;;;;;;28.00;63.50;;;;;;5038520;28;19992;-67
2021/07/13 13:33:39;;;;;;;;;;;28.20;60.00;;;;;;5022766;28;20312;-67
2021/07/13 13:40:56;;;;;;;;;;;28.40;58.80;;;;;;5031961;28;19913;-67
2021/07/13 13:43:22;;;;;;;;;;;28.60;56.50;;;;;;5034491;28;20389;-67
2021/07/13 13:45:48;;;;;;;;;;;28.70;58.10;;;;;;5036990;28;19921;-68
2021/07/13 13:48:13;;;;;;;;;;;28.40;54.40;;;;;;5038577;28;20268;-68
2021/07/13 13:50:39;;;;;;;;;;;28.70;55.50;;;;;;5030774;28;20085;-68
2021/07/13 13:53:04;;;;;;;;;;;28.50;55.90;;;;;;5037825;28;19932;-68
2021/07/13 13:55:30;;;;;;;;;;;28.80;54.70;;;;;;5031634;28;19943;-68
2021/07/13 13:57:55;;;;;;;;;;;28.90;54.00;;;;;;5037362;28;19917;-69
2021/07/13 14:00:22;;;;;;;;;;;29.00;56.50;;;;;;5038822;28;19920;-67
2021/07/13 14:02:48;;;;;;;;;;;29.20;53.80;;;;;;5039313;28;19943;-68
2021/07/13 14:05:13;;;;;;;;;;;29.50;53.80;;;;;;5037281;28;20015;-68
2021/07/13 14:07:39;;;;;;;;;;;30.40;55.00;;;;;;5040422;28;19952;-69
2021/07/13 14:10:05;;;;;;;;;;;30.90;49.30;;;;;;5033827;28;19925;-68
2021/07/13 14:12:30;;;;;;;;;;;30.80;48.20;;;;;;5031484;28;20396;-68
2021/07/13 14:14:57;;;;;;;;;;;29.90;51.50;;;;;;5036553;28;19948;-67
2021/07/13 14:17:23;;;;;;;;;;;29.80;50.20;;;;;;5033933;28;20117;-67
2021/07/13 14:19:49;;;;;;;;;;;29.80;55.10;;;;;;5036104;28;19917;-68
2021/07/13 14:22:14;;;;;;;;;;;29.50;55.40;;;;;;5032900;28;20296;-68